Terminal Aerodrome Forecast
Issued by NWS Upton, NY

Home | Current Version | Previous Version | Text Only | Print | Product List | Glossary On
Versions: 1 2 3 4 5 6 7 8 9 10 11 12 13 14 15 16 17 18 19 20 21 22 23 24 25 26
000
FTUS41 KOKX 060545
TAFLGA
TAF
KLGA 060545Z 0606/0706 20004KT P6SM BKN250
     FM061300 VRB05KT P6SM SCT080 BKN150
     FM061500 14006KT P6SM BKN080
     FM061800 15009KT P6SM BKN080
     FM062100 15009KT P6SM SCT050 BKN100
     FM070200 15007KT P6SM SCT020 BKN120
     FM070400 15006KT 6SM BR SCT010 SCT050 BKN100=

USA.gov is the U.S. government's official web portal to all federal, state and local government web resources and services.